createdAt,value
2018-08-31T00:02:11.535Z,99891.72
2018-08-31T00:04:53.156Z,99898.92
2018-08-31T00:07:34.893Z,99894.73
2018-08-31T00:16:42.006Z,99899.22
2018-08-31T00:19:11.910Z,99898.20
2018-08-31T00:21:44.288Z,99890.05
2018-08-31T00:24:27.063Z,99892.06
2018-08-31T00:27:08.879Z,99897.45
2018-08-31T00:29:52.347Z,99896.48
2018-08-31T00:34:41.431Z,99900.67
2018-08-31T00:37:21.088Z,99882.83
2018-08-31T00:39:59.071Z,99905.56
2018-08-31T00:43:41.638Z,99910.03
2018-08-31T00:46:11.660Z,99908.90
2018-08-31T00:48:42.861Z,99903.14
2018-08-31T00:51:13.010Z,99904.75
2018-08-31T00:53:42.901Z,99904.39
2018-08-31T00:56:13.312Z,99902.12
2018-08-31T00:58:43.649Z,99900.10
2018-08-31T01:01:14.574Z,99903.48
2018-08-31T01:03:45.361Z,99909.02
2018-08-31T01:06:15.508Z,99905.56
2018-08-31T01:08:45.670Z,99908.83
2018-08-31T01:11:16.269Z,99904.68
2018-08-31T01:13:47.136Z,99905.94
2018-08-31T01:16:18.498Z,99910.05
2018-08-31T01:18:49.654Z,99905.23
2018-08-31T01:21:20.279Z,99908.09
2018-08-31T01:23:50.341Z,99906.89
2018-08-31T01:26:21.485Z,99903.16
2018-08-31T01:28:53.800Z,99902.03
2018-08-31T01:31:24.425Z,99902.95
2018-08-31T01:33:54.528Z,99909.66
2018-08-31T01:36:24.383Z,99912.79
2018-08-31T01:38:55.067Z,99911.47
2018-08-31T01:41:25.298Z,99913.20
2018-08-31T01:43:55.371Z,99908.78
2018-08-31T01:46:26.077Z,99910.35
2018-08-31T01:48:55.972Z,99907.90
2018-08-31T01:51:26.537Z,99915.13
2018-08-31T01:53:57.924Z,99911.97
2018-08-31T01:56:28.094Z,99905.24
2018-08-31T01:58:58.113Z,99899.44
2018-08-31T02:01:28.327Z,99895.25
2018-08-31T02:04:02.523Z,99894.45
2018-08-31T02:06:33.944Z,99890.07
2018-08-31T02:09:09.305Z,99894.22
2018-08-31T02:11:39.758Z,99890.88
2018-08-31T02:14:09.822Z,99890.69
2018-08-31T02:16:40.397Z,99894.09
2018-08-31T02:19:10.208Z,99893.52
2018-08-31T02:21:40.463Z,99896.58
2018-08-31T02:24:11.141Z,99894.84
2018-08-31T02:26:41.134Z,99896.61
2018-08-31T02:29:11.099Z,99894.27
2018-08-31T02:31:41.609Z,99897.42
2018-08-31T02:34:12.363Z,99901.39
2018-08-31T02:36:42.289Z,99899.84
2018-08-31T02:39:13.910Z,99900.58
2018-08-31T02:41:44.089Z,99900.73
2018-08-31T02:44:15.813Z,99893.16
2018-08-31T02:46:46.420Z,99900.66
2018-08-31T02:49:17.488Z,99896.34
2018-08-31T02:51:48.916Z,99901.81
2018-08-31T02:54:19.385Z,99902.03
2018-08-31T02:56:49.636Z,99878.86
2018-08-31T02:59:19.833Z,99901.70
2018-08-31T03:01:50.140Z,99901.19
2018-08-31T03:04:20.309Z,99901.20
2018-08-31T03:06:50.531Z,99897.42
2018-08-31T03:09:21.304Z,99899.25
2018-08-31T03:11:52.051Z,99899.59
2018-08-31T03:14:23.043Z,99897.80
2018-08-31T03:16:53.851Z,99904.39
2018-08-31T03:19:24.079Z,99903.14
2018-08-31T03:21:54.032Z,99898.96
2018-08-31T03:24:25.991Z,99895.52
2018-08-31T03:26:55.996Z,99899.47
2018-08-31T03:29:26.428Z,99899.11
2018-08-31T03:31:56.913Z,99899.30
2018-08-31T03:34:28.221Z,99896.25
2018-08-31T03:36:58.537Z,99899.88
2018-08-31T03:39:29.929Z,99899.11
2018-08-31T03:42:00.119Z,99893.31
2018-08-31T03:44:31.064Z,99897.34
2018-08-31T03:47:01.631Z,99887.59
2018-08-31T03:49:33.062Z,99892.98
2018-08-31T03:52:03.025Z,99896.72
2018-08-31T03:54:34.017Z,99897.97
2018-08-31T03:57:05.116Z,99895.14
2018-08-31T03:59:36.455Z,99897.45
2018-08-31T04:02:06.676Z,99898.19
2018-08-31T04:04:36.396Z,99901.70
2018-08-31T04:07:06.836Z,99900.94
2018-08-31T04:09:36.858Z,99902.52
2018-08-31T04:12:07.509Z,99905.00
2018-08-31T04:14:37.645Z,99912.50
2018-08-31T04:17:10.126Z,99911.67
2018-08-31T04:19:41.240Z,99912.28
2018-08-31T04:22:11.822Z,99912.15
2018-08-31T04:24:41.453Z,99912.73
2018-08-31T04:27:11.431Z,99914.35
2018-08-31T04:29:42.044Z,99919.25
2018-08-31T04:32:12.934Z,99918.61
2018-08-31T04:34:42.672Z,99923.92
2018-08-31T04:37:13.440Z,99930.73
2018-08-31T04:39:43.227Z,99931.92
2018-08-31T04:42:13.387Z,99923.20
2018-08-31T04:44:43.899Z,99923.59
2018-08-31T04:47:14.336Z,99921.42
2018-08-31T04:49:44.457Z,99929.72
2018-08-31T04:52:14.907Z,99929.55
2018-08-31T04:54:44.587Z,99922.67
2018-08-31T04:57:14.746Z,99929.39
2018-08-31T04:59:45.398Z,99926.62
2018-08-31T05:02:16.316Z,99925.84
2018-08-31T05:04:46.176Z,99934.09
2018-08-31T05:07:16.471Z,99933.41
2018-08-31T05:09:46.432Z,99936.87
2018-08-31T05:12:16.464Z,99941.34
2018-08-31T05:14:46.906Z,99940.29
2018-08-31T05:17:16.815Z,99941.03
2018-08-31T05:19:47.039Z,99942.02
2018-08-31T05:22:17.468Z,99937.66
2018-08-31T05:24:47.429Z,99940.92
2018-08-31T05:27:18.160Z,99947.48
2018-08-31T05:29:47.991Z,99944.30
2018-08-31T05:32:18.260Z,99944.19
2018-08-31T05:34:48.368Z,99931.48
2018-08-31T05:37:19.646Z,99935.42
2018-08-31T05:39:50.443Z,99937.58
2018-08-31T05:42:21.664Z,99935.72
2018-08-31T05:44:52.259Z,99915.05
2018-08-31T05:47:22.456Z,99940.01
2018-08-31T05:49:52.816Z,99952.51
2018-08-31T05:52:23.027Z,99946.02
2018-08-31T05:54:52.929Z,99955.14
2018-08-31T05:57:24.195Z,99962.62
2018-08-31T05:59:54.049Z,99954.50
2018-08-31T06:02:24.198Z,99939.78
2018-08-31T06:04:55.588Z,99969.61
2018-08-31T06:07:25.790Z,99971.64
2018-08-31T06:09:56.074Z,99977.89
2018-08-31T06:12:26.712Z,99970.13
2018-08-31T06:17:36.059Z,99963.25
2018-08-31T06:20:07.212Z,99947.40
2018-08-31T06:22:37.201Z,99973.52
2018-08-31T06:25:08.197Z,99984.03
2018-08-31T06:27:39.192Z,99961.75
2018-08-31T06:30:09.468Z,99987.70
2018-08-31T06:32:39.404Z,99988.89
2018-08-31T06:35:11.702Z,99981.89
2018-08-31T06:37:42.781Z,99976.67
2018-08-31T06:40:13.905Z,99977.33
2018-08-31T06:42:44.631Z,99979.02
2018-08-31T06:45:16.862Z,99974.14
2018-08-31T06:47:47.864Z,99982.61
2018-08-31T06:50:21.188Z,99986.16
2018-08-31T06:52:51.798Z,99989.59
2018-08-31T06:55:24.194Z,99984.53
2018-08-31T06:57:54.666Z,99987.70
2018-08-31T07:00:32.289Z,99986.50
2018-08-31T07:03:03.166Z,99984.94
2018-08-31T07:05:35.800Z,99993.41
2018-08-31T07:08:08.087Z,99985.80
2018-08-31T07:10:38.878Z,99987.31
2018-08-31T07:13:12.436Z,99967.78
2018-08-31T07:15:43.413Z,99991.89
2018-08-31T07:18:17.114Z,99989.73
2018-08-31T07:20:48.133Z,99990.77
2018-08-31T07:23:18.645Z,99965.47
2018-08-31T07:25:49.069Z,99935.72
2018-08-31T07:28:22.624Z,99987.97
2018-08-31T07:30:55.798Z,99994.81
2018-08-31T07:33:31.135Z,99988.11
2018-08-31T07:36:02.143Z,99994.75
2018-08-31T07:38:32.706Z,99998.61
2018-08-31T07:41:04.075Z,99999.53
2018-08-31T07:43:34.614Z,100004.71
2018-08-31T07:46:04.455Z,100009.05
2018-08-31T07:48:34.918Z,100006.00
2018-08-31T07:51:04.820Z,100002.41
2018-08-31T07:53:35.021Z,100006.89
2018-08-31T07:56:07.851Z,100009.73
2018-08-31T07:58:40.148Z,99986.97
2018-08-31T08:01:13.016Z,100003.09
2018-08-31T08:03:44.205Z,99999.88
2018-08-31T08:06:14.622Z,100002.19
2018-08-31T08:08:46.826Z,99997.72
2018-08-31T08:11:17.533Z,99995.09
2018-08-31T08:13:48.636Z,99994.48
2018-08-31T08:16:20.361Z,99989.98
2018-08-31T08:18:51.407Z,99999.09
2018-08-31T08:21:21.744Z,99994.66
2018-08-31T08:23:52.949Z,99992.81
2018-08-31T08:26:25.680Z,99988.30
2018-08-31T08:28:56.707Z,99989.65
2018-08-31T08:31:26.832Z,99986.02
2018-08-31T08:33:57.228Z,99982.12
2018-08-31T08:36:28.909Z,99984.78
2018-08-31T08:38:59.332Z,99981.62
2018-08-31T08:41:30.922Z,99981.62
2018-08-31T08:44:01.822Z,99983.47
2018-08-31T08:46:47.839Z,99987.50
2018-08-31T08:49:21.860Z,99983.48
2018-08-31T08:51:53.464Z,99988.01
2018-08-31T08:54:24.195Z,99989.56
2018-08-31T08:56:55.820Z,99984.77
2018-08-31T08:59:32.699Z,99981.33
2018-08-31T09:02:05.112Z,99981.34
2018-08-31T09:04:37.635Z,99983.17
2018-08-31T09:07:11.257Z,99991.56
2018-08-31T09:09:46.216Z,99997.53
2018-08-31T09:12:22.987Z,99993.83
2018-08-31T09:14:53.047Z,99988.71
2018-08-31T09:17:23.550Z,99982.59
2018-08-31T09:19:53.542Z,99989.11
2018-08-31T09:22:23.602Z,99988.27
2018-08-31T09:24:54.444Z,99989.19
2018-08-31T09:27:28.656Z,99989.27
2018-08-31T09:30:05.171Z,99992.08
2018-08-31T09:32:35.999Z,99982.64
2018-08-31T09:35:06.903Z,99982.41
2018-08-31T09:37:37.322Z,99989.09
2018-08-31T09:40:07.579Z,99983.48
2018-08-31T09:42:39.077Z,99980.03
2018-08-31T09:45:09.537Z,99970.95
2018-08-31T09:47:40.271Z,99978.70
2018-08-31T09:50:11.882Z,99975.77
2018-08-31T09:52:41.896Z,99973.08
2018-08-31T09:55:12.086Z,99972.56
2018-08-31T09:57:42.445Z,99971.19
2018-08-31T10:00:12.810Z,99970.38
2018-08-31T10:02:48.861Z,99970.87
2018-08-31T10:05:20.177Z,99966.80
2018-08-31T10:07:51.411Z,99969.44
2018-08-31T10:10:22.795Z,99965.70
2018-08-31T10:12:53.185Z,99960.27
2018-08-31T10:15:23.219Z,99963.44
2018-08-31T10:17:53.120Z,99958.16
2018-08-31T10:20:26.402Z,99960.03
2018-08-31T10:22:57.547Z,99944.07
2018-08-31T10:25:30.348Z,99950.02
2018-08-31T10:28:05.427Z,99954.60
2018-08-31T10:30:38.682Z,99954.35
2018-08-31T10:33:10.686Z,99952.50
2018-08-31T10:35:40.760Z,99946.38
2018-08-31T10:38:12.369Z,99939.45
2018-08-31T10:40:44.696Z,99942.14
2018-08-31T10:43:22.978Z,99938.14
2018-08-31T10:45:55.240Z,99940.00
2018-08-31T10:52:51.795Z,99938.78
2018-08-31T10:55:23.071Z,99924.05
2018-08-31T10:57:57.091Z,99922.41
2018-08-31T11:00:27.461Z,99918.52
2018-08-31T11:02:57.840Z,99911.78
2018-08-31T11:05:28.450Z,99917.06
2018-08-31T11:07:58.928Z,99926.70
2018-08-31T11:10:29.698Z,99919.48
2018-08-31T11:13:00.810Z,99913.92
2018-08-31T11:15:31.861Z,99916.20
2018-08-31T11:18:02.800Z,99909.43
2018-08-31T11:20:33.218Z,99917.28
2018-08-31T11:23:03.327Z,99922.11
2018-08-31T11:25:35.307Z,99917.44
2018-08-31T11:28:09.723Z,99910.75
2018-08-31T11:30:40.923Z,99912.30
2018-08-31T11:33:11.233Z,99907.45
2018-08-31T11:35:42.467Z,99901.52
2018-08-31T11:38:17.166Z,99896.20
2018-08-31T11:40:47.313Z,99890.12
2018-08-31T11:43:17.558Z,99890.30
2018-08-31T11:45:48.010Z,99892.02
2018-08-31T11:48:18.319Z,99895.95
2018-08-31T11:50:48.154Z,99888.39
2018-08-31T11:53:18.162Z,99895.13
2018-08-31T11:55:49.708Z,99896.83
2018-08-31T11:58:19.460Z,99888.88
2018-08-31T12:00:51.831Z,99896.03
2018-08-31T12:03:23.049Z,99891.42
2018-08-31T12:05:54.485Z,99889.83
2018-08-31T12:08:25.723Z,99898.41
2018-08-31T12:10:55.679Z,99886.67
2018-08-31T12:13:28.062Z,99882.66
2018-08-31T12:15:58.964Z,99888.68
2018-08-31T12:18:29.556Z,99884.80
2018-08-31T12:21:00.304Z,99892.33
2018-08-31T12:23:31.343Z,99886.52
2018-08-31T12:26:03.085Z,99881.88
2018-08-31T12:28:33.505Z,99869.05
2018-08-31T12:31:03.966Z,99866.09
2018-08-31T12:33:35.327Z,99866.48
2018-08-31T12:36:05.886Z,99866.46
2018-08-31T12:38:37.826Z,99857.63
2018-08-31T12:41:08.101Z,99863.96
2018-08-31T12:43:38.384Z,99860.94
2018-08-31T12:47:11.627Z,99857.55
2018-08-31T12:49:46.411Z,99855.61
2018-08-31T12:52:16.537Z,99862.25
2018-08-31T12:54:50.430Z,99850.92
2018-08-31T12:57:24.025Z,99854.87
2018-08-31T13:00:12.161Z,99850.64
2018-08-31T13:02:43.727Z,99856.88
2018-08-31T13:05:18.851Z,99853.70
2018-08-31T13:07:50.399Z,99862.91
2018-08-31T13:10:23.472Z,99864.27
2018-08-31T13:12:56.289Z,99857.71
2018-08-31T13:15:26.535Z,99860.88
2018-08-31T13:18:04.673Z,99859.85
2018-08-31T13:20:36.294Z,99859.21
2018-08-31T13:23:07.960Z,99853.05
2018-08-31T13:25:41.645Z,99854.85
2018-08-31T13:28:16.809Z,99853.27
2018-08-31T13:30:48.977Z,99848.94
2018-08-31T13:33:20.507Z,99852.87
2018-08-31T13:35:52.043Z,99857.59
2018-08-31T13:38:24.960Z,99860.02
2018-08-31T13:40:57.217Z,99859.80
2018-08-31T13:43:32.020Z,99859.89
2018-08-31T13:46:04.273Z,99849.89
2018-08-31T13:48:34.196Z,99845.35
2018-08-31T13:51:07.817Z,99845.47
2018-08-31T13:53:40.665Z,99847.02
2018-08-31T13:56:13.078Z,99847.36
2018-08-31T13:58:45.173Z,99845.44
2018-08-31T14:01:16.828Z,99847.61
2018-08-31T14:03:49.483Z,99848.28
2018-08-31T14:06:22.125Z,99845.18
2018-08-31T14:08:53.532Z,99850.30
2018-08-31T14:11:24.526Z,99846.44
2018-08-31T14:13:58.462Z,99853.08
2018-08-31T14:16:33.592Z,99853.98
2018-08-31T14:19:12.126Z,99860.02
2018-08-31T14:21:48.814Z,99856.61
2018-08-31T14:24:20.458Z,99847.88
2018-08-31T14:26:51.583Z,99850.88
2018-08-31T14:29:22.905Z,99852.84
2018-08-31T14:31:58.018Z,99858.58
2018-08-31T14:34:31.238Z,99852.44
2018-08-31T14:37:03.924Z,99851.17
2018-08-31T14:39:38.619Z,99847.77
2018-08-31T14:42:24.667Z,99853.97
2018-08-31T14:44:58.573Z,99858.23
2018-08-31T14:47:31.569Z,99861.28
2018-08-31T14:50:05.425Z,99857.59
2018-08-31T14:52:35.638Z,99856.42
2018-08-31T14:55:11.513Z,99854.41
2018-08-31T14:57:42.357Z,99857.00
2018-08-31T15:00:18.677Z,99850.81
2018-08-31T15:02:54.446Z,99846.56
2018-08-31T15:05:42.947Z,99844.92
2018-08-31T15:08:17.886Z,99842.20
2018-08-31T15:10:51.369Z,99846.66
2018-08-31T15:13:24.857Z,99850.73
2018-08-31T15:15:58.384Z,99852.52
2018-08-31T15:18:32.030Z,99848.41
2018-08-31T15:21:04.990Z,99842.05
2018-08-31T15:23:37.066Z,99845.54
2018-08-31T15:26:07.646Z,99820.48
2018-08-31T15:28:38.094Z,99792.34
2018-08-31T15:31:08.824Z,99846.77
2018-08-31T15:33:39.606Z,99846.28
2018-08-31T15:36:09.975Z,99841.75
2018-08-31T15:38:40.593Z,99838.84
2018-08-31T15:41:11.712Z,99839.94
2018-08-31T15:43:41.957Z,99846.48
2018-08-31T15:46:14.381Z,99848.66
2018-08-31T15:48:44.208Z,99846.31
2018-08-31T15:51:14.492Z,99845.14
2018-08-31T15:53:44.833Z,99842.69
2018-08-31T15:56:15.817Z,99835.81
2018-08-31T15:58:46.394Z,99805.44
2018-08-31T16:01:19.838Z,99831.58
2018-08-31T16:03:51.713Z,99828.86
2018-08-31T16:06:24.346Z,99837.70
2018-08-31T16:08:56.227Z,99825.66
2018-08-31T16:11:27.893Z,99828.06
2018-08-31T16:13:58.962Z,99827.34
2018-08-31T16:16:29.549Z,99826.85
2018-08-31T16:18:59.954Z,99826.19
2018-08-31T16:21:30.724Z,99829.53
2018-08-31T16:24:04.754Z,99838.55
2018-08-31T16:26:35.050Z,99838.95
2018-08-31T16:29:05.609Z,99833.04
2018-08-31T16:31:37.899Z,99838.42
2018-08-31T16:34:08.599Z,99838.03
2018-08-31T16:36:41.256Z,99838.25
2018-08-31T16:39:12.237Z,99841.63
2018-08-31T16:41:43.299Z,99842.66
2018-08-31T16:44:15.182Z,99840.75
2018-08-31T16:46:45.927Z,99848.71
2018-08-31T16:49:17.203Z,99844.95
2018-08-31T16:51:48.127Z,99846.53
2018-08-31T16:54:18.406Z,99839.84
2018-08-31T16:56:50.688Z,99857.78
2018-08-31T16:59:23.083Z,99852.89
2018-08-31T17:01:55.190Z,99853.38
2018-08-31T17:04:27.624Z,99853.96
2018-08-31T17:07:01.175Z,99851.86
2018-08-31T17:09:38.488Z,99852.78
2018-08-31T17:12:14.600Z,99848.85
2018-08-31T17:14:47.002Z,99850.87
2018-08-31T17:17:21.252Z,99855.67
2018-08-31T17:19:54.749Z,99861.06
2018-08-31T17:22:27.545Z,99862.42
2018-08-31T17:25:01.676Z,99858.14
2018-08-31T17:27:39.681Z,99864.83
2018-08-31T17:30:21.808Z,99862.69
2018-08-31T17:33:03.169Z,99876.88
2018-08-31T17:35:40.228Z,99876.61
2018-08-31T17:38:12.127Z,99875.02
2018-08-31T17:40:44.319Z,99884.63
2018-08-31T17:43:18.119Z,99882.50
2018-08-31T17:45:53.528Z,99883.81
2018-08-31T17:48:32.228Z,99891.82
2018-08-31T17:51:11.880Z,99894.66
2018-08-31T17:53:42.116Z,99893.34
2018-08-31T17:56:16.911Z,99901.60
2018-08-31T17:58:51.058Z,99893.59
2018-08-31T18:01:25.210Z,99903.69
2018-08-31T18:04:05.212Z,99908.20
2018-08-31T18:06:44.301Z,99914.54
2018-08-31T18:09:24.481Z,99910.04
2018-08-31T18:14:51.028Z,99911.34
2018-08-31T18:17:24.533Z,99920.39
2018-08-31T18:19:56.485Z,99922.74
2018-08-31T18:22:30.062Z,99932.36
2018-08-31T18:25:12.689Z,99929.12
2018-08-31T18:27:45.475Z,99932.06
2018-08-31T18:30:22.812Z,99938.14
2018-08-31T18:33:01.036Z,99940.95
2018-08-31T18:35:33.354Z,99951.02
2018-08-31T18:38:21.215Z,99953.38
2018-08-31T18:40:53.073Z,99950.23
2018-08-31T18:43:26.821Z,99949.16
2018-08-31T18:46:00.713Z,99937.11
2018-08-31T18:48:36.063Z,99949.44
2018-08-31T18:51:21.485Z,99956.61
2018-08-31T18:53:54.800Z,99958.44
2018-08-31T18:56:30.992Z,99961.97
2018-08-31T18:59:07.572Z,99967.19
2018-08-31T19:01:39.586Z,99971.83
2018-08-31T19:04:14.472Z,99975.29
2018-08-31T19:06:49.690Z,99971.23
2018-08-31T19:09:21.294Z,99977.11
2018-08-31T19:11:53.264Z,99978.71
2018-08-31T19:14:24.623Z,99980.28
2018-08-31T19:17:03.431Z,99963.18
2018-08-31T19:19:35.622Z,99987.69
2018-08-31T19:22:13.234Z,99992.23
2018-08-31T19:24:46.195Z,99994.89
2018-08-31T19:27:18.029Z,99994.13
2018-08-31T19:29:52.600Z,99995.42
2018-08-31T19:32:27.709Z,99997.51
2018-08-31T19:35:00.290Z,100000.64
2018-08-31T19:37:32.344Z,100003.17
2018-08-31T19:40:06.674Z,100002.33
2018-08-31T19:42:39.637Z,100012.80
2018-08-31T19:45:11.301Z,100011.09
2018-08-31T19:47:43.545Z,100012.48
2018-08-31T19:50:14.596Z,100015.60
2018-08-31T19:52:52.686Z,100016.87
2018-08-31T19:55:25.542Z,100018.95
2018-08-31T19:58:01.279Z,100025.98
2018-08-31T20:00:34.681Z,100023.08
2018-08-31T20:03:08.635Z,100013.80
2018-08-31T20:05:41.791Z,100019.41
2018-08-31T20:08:16.426Z,100005.98
2018-08-31T20:10:49.889Z,100021.44
2018-08-31T20:13:26.410Z,100024.38
2018-08-31T20:16:00.583Z,100029.64
2018-08-31T20:18:34.247Z,100035.27
2018-08-31T20:21:05.170Z,100044.45
2018-08-31T20:23:38.789Z,100048.38
2018-08-31T20:26:12.406Z,100052.41
2018-08-31T20:28:47.531Z,100059.34
2018-08-31T20:31:24.241Z,100061.47
2018-08-31T20:33:57.925Z,100062.57
2018-08-31T20:36:35.181Z,100065.09
2018-08-31T20:39:12.151Z,100068.51
2018-08-31T20:41:43.035Z,100067.77
2018-08-31T20:44:19.329Z,100067.05
2018-08-31T20:46:51.173Z,100068.95
2018-08-31T20:49:23.085Z,100072.66
2018-08-31T20:51:55.911Z,100076.97
2018-08-31T20:54:28.057Z,100077.18
2018-08-31T20:57:02.126Z,100078.88
2018-08-31T20:59:35.557Z,100084.59
2018-08-31T21:02:07.760Z,100079.92
2018-08-31T21:04:37.639Z,100077.34
2018-08-31T21:07:08.068Z,100079.62
2018-08-31T21:09:39.131Z,100084.27
2018-08-31T21:12:10.817Z,100083.81
2018-08-31T21:14:41.838Z,100084.16
2018-08-31T21:17:12.691Z,100088.52
2018-08-31T21:19:43.356Z,100090.79
2018-08-31T21:22:15.715Z,100091.42
2018-08-31T21:24:47.289Z,100092.66
2018-08-31T21:27:19.657Z,100088.04
2018-08-31T21:29:49.734Z,100093.95
2018-08-31T21:32:24.134Z,100098.91
2018-08-31T21:34:56.721Z,100094.38
2018-08-31T21:37:27.655Z,100099.30
2018-08-31T21:39:59.468Z,100097.97
2018-08-31T21:42:30.070Z,100097.52
2018-08-31T21:45:02.611Z,100093.52
2018-08-31T21:47:36.137Z,100092.64
2018-08-31T21:50:12.411Z,100090.70
2018-08-31T21:52:42.949Z,100089.89
2018-08-31T21:55:15.237Z,100093.34
2018-08-31T21:57:48.071Z,100088.79
2018-08-31T22:00:22.249Z,100098.14
2018-08-31T22:02:57.437Z,100104.58
2018-08-31T22:05:29.734Z,100103.95
2018-08-31T22:08:02.089Z,100098.45
2018-08-31T22:10:35.306Z,100097.34
2018-08-31T22:13:07.404Z,100075.61
2018-08-31T22:15:38.594Z,100094.12
2018-08-31T22:18:09.592Z,100100.10
2018-08-31T22:20:41.193Z,100096.83
2018-08-31T22:23:14.783Z,100095.10
2018-08-31T22:25:45.460Z,100094.81
2018-08-31T22:28:16.774Z,100083.36
2018-08-31T22:30:47.527Z,100094.99
2018-08-31T22:33:18.159Z,100089.00
2018-08-31T22:35:48.049Z,100094.07
2018-08-31T22:38:19.822Z,100088.90
2018-08-31T22:40:51.423Z,100094.07
2018-08-31T22:43:29.322Z,100095.31
2018-08-31T22:46:01.248Z,100090.94
2018-08-31T22:48:31.639Z,100087.86
2018-08-31T22:51:02.452Z,100081.47
2018-08-31T22:53:33.648Z,100080.67
2018-08-31T22:56:05.827Z,100083.09
2018-08-31T22:58:37.345Z,100071.67
2018-08-31T23:01:07.512Z,100073.65
2018-08-31T23:03:37.537Z,100074.34
2018-08-31T23:06:08.237Z,100078.70
2018-08-31T23:08:39.035Z,100085.17
2018-08-31T23:11:12.459Z,100085.39
2018-08-31T23:13:44.533Z,100092.86
2018-08-31T23:16:15.220Z,100097.03
2018-08-31T23:18:45.307Z,100097.55
2018-08-31T23:21:18.720Z,100102.19
2018-08-31T23:23:50.254Z,100108.13
2018-08-31T23:26:20.417Z,100082.95
2018-08-31T23:28:50.910Z,100119.06
2018-08-31T23:31:20.783Z,100122.22
2018-08-31T23:33:50.607Z,100093.84
2018-08-31T23:36:20.453Z,100122.33
2018-08-31T23:38:51.428Z,100127.96
2018-08-31T23:41:22.701Z,100134.51
2018-08-31T23:43:53.958Z,100137.23
2018-08-31T23:46:24.249Z,100134.29
2018-08-31T23:48:54.288Z,100126.09
2018-08-31T23:51:24.948Z,100133.13
2018-08-31T23:53:55.595Z,100129.05
2018-08-31T23:56:26.029Z,100123.17
2018-08-31T23:58:56.833Z,100117.14
